Time;durP1;ratioP1;P1;durP2;ratioP2;P2;SDS_P1;SDS_P2;PMS_P1;PMS_P2;Temp;Humidity;BMP_temperature;BMP_pressure;BME280_temperature;BME280_humidity;BME280_pressure;Samples;Min_cycle;Max_cycle;Signal;HPM_P1;HPM_P2
2023/07/08 00:00:25;;;;;;;11.80;4.90;;;;;;;;;;106714;1278;22508;-80
2023/07/08 00:03:12;;;;;;;9.20;4.80;;;;;;;;;;106834;1259;24296;-77
2023/07/08 00:05:40;;;;;;;11.20;4.40;;;;;;;;;;106802;1275;22527;-84
2023/07/08 00:08:19;;;;;;;9.50;4.80;;;;;;;;;;106891;1278;22521;-84
2023/07/08 00:10:45;;;;;;;10.50;5.20;;;;;;;;;;106836;1272;22554;-78
2023/07/08 00:13:12;;;;;;;12.30;5.20;;;;;;;;;;106834;1261;22520;-84
2023/07/08 00:15:42;;;;;;;10.50;4.70;;;;;;;;;;106831;1275;22538;-82
2023/07/08 00:18:16;;;;;;;12.80;4.80;;;;;;;;;;106846;1278;24357;-84
2023/07/08 00:20:44;;;;;;;10.60;4.60;;;;;;;;;;106815;1255;24191;-78
2023/07/08 00:23:11;;;;;;;9.90;4.50;;;;;;;;;;106830;1257;24419;-78
2023/07/08 00:25:38;;;;;;;9.70;4.60;;;;;;;;;;106816;1278;22523;-82
2023/07/08 00:28:10;;;;;;;9.10;4.40;;;;;;;;;;106831;1278;25424;-82
2023/07/08 00:30:36;;;;;;;9.10;3.70;;;;;;;;;;106818;1278;22523;-84
2023/07/08 00:33:03;;;;;;;8.00;4.20;;;;;;;;;;106828;1272;25357;-77
2023/07/08 00:35:38;;;;;;;9.20;4.40;;;;;;;;;;106738;1278;25226;-82
2023/07/08 00:38:29;;;;;;;9.00;4.10;;;;;;;;;;106875;1278;24384;-83
2023/07/08 00:41:06;;;;;;;10.50;4.40;;;;;;;;;;106729;1278;24182;-84
2023/07/08 00:43:52;;;;;;;9.00;4.60;;;;;;;;;;106757;1257;22781;-82
2023/07/08 00:46:26;;;;;;;9.40;4.30;;;;;;;;;;106843;1278;24266;-81
2023/07/08 00:49:12;;;;;;;9.60;4.40;;;;;;;;;;106848;1278;25512;-79
2023/07/08 00:51:40;;;;;;;8.80;4.50;;;;;;;;;;106896;1278;22541;-82
2023/07/08 00:54:18;;;;;;;9.60;4.40;;;;;;;;;;106954;1275;24260;-82
2023/07/08 00:56:45;;;;;;;9.00;4.40;;;;;;;;;;106891;1275;23176;-82
2023/07/08 00:59:17;;;;;;;9.80;4.50;;;;;;;;;;106907;1275;26475;-80
2023/07/08 01:01:44;;;;;;;10.10;4.80;;;;;;;;;;106913;1275;25220;-78
2023/07/08 01:04:17;;;;;;;9.40;4.60;;;;;;;;;;106935;1252;24215;-80
2023/07/08 01:06:47;;;;;;;8.10;3.70;;;;;;;;;;107061;1275;22520;-84
2023/07/08 01:09:15;;;;;;;9.00;3.90;;;;;;;;;;107106;1275;25557;-78
2023/07/08 01:11:42;;;;;;;11.50;3.70;;;;;;;;;;107101;1275;25521;-78
2023/07/08 01:14:12;;;;;;;8.40;3.90;;;;;;;;;;106935;1253;22660;-82
2023/07/08 01:16:39;;;;;;;9.50;4.10;;;;;;;;;;106920;1275;22540;-82
2023/07/08 01:19:07;;;;;;;10.90;4.10;;;;;;;;;;106897;1275;22500;-80
2023/07/08 01:21:39;;;;;;;10.20;3.90;;;;;;;;;;106946;1275;22774;-79
2023/07/08 01:24:07;;;;;;;12.10;4.00;;;;;;;;;;106907;1275;22630;-77
2023/07/08 01:26:35;;;;;;;9.60;4.00;;;;;;;;;;106929;1258;22547;-79
2023/07/08 01:29:03;;;;;;;10.00;4.10;;;;;;;;;;107096;1275;25242;-79
2023/07/08 01:31:29;;;;;;;9.40;4.40;;;;;;;;;;106881;1275;22631;-83
2023/07/08 01:33:56;;;;;;;8.60;3.90;;;;;;;;;;106949;1275;25240;-78
2023/07/08 01:36:29;;;;;;;14.50;4.60;;;;;;;;;;106948;1259;22917;-82
2023/07/08 01:38:56;;;;;;;9.00;4.10;;;;;;;;;;106858;1275;22526;-81
2023/07/08 01:41:23;;;;;;;9.90;4.00;;;;;;;;;;106947;1275;22524;-78
2023/07/08 01:43:50;;;;;;;8.70;3.80;;;;;;;;;;106970;1275;22597;-83
2023/07/08 01:46:26;;;;;;;9.60;3.80;;;;;;;;;;106898;1275;23894;-82
2023/07/08 01:48:57;;;;;;;8.10;3.90;;;;;;;;;;106949;1275;22517;-80
2023/07/08 01:51:25;;;;;;;9.00;3.50;;;;;;;;;;106922;1272;24253;-77
2023/07/08 01:54:12;;;;;;;10.20;4.30;;;;;;;;;;106921;1275;25294;-78
2023/07/08 01:56:42;;;;;;;9.40;3.70;;;;;;;;;;106964;1252;24176;-84
2023/07/08 01:59:09;;;;;;;8.30;3.60;;;;;;;;;;107120;1275;25333;-77
2023/07/08 02:01:36;;;;;;;7.90;3.70;;;;;;;;;;107132;1272;25210;-80
2023/07/08 02:04:02;;;;;;;8.90;3.60;;;;;;;;;;106901;1274;22517;-78
2023/07/08 02:06:29;;;;;;;7.80;3.60;;;;;;;;;;106881;1259;25220;-82
2023/07/08 02:09:07;;;;;;;9.10;3.30;;;;;;;;;;106958;1275;22507;-82
2023/07/08 02:11:33;;;;;;;9.20;4.00;;;;;;;;;;107168;1275;22520;-80
2023/07/08 02:14:01;;;;;;;9.00;4.40;;;;;;;;;;106973;1275;23902;-84
2023/07/08 02:16:28;;;;;;;8.80;4.60;;;;;;;;;;106997;1268;22519;-82
2023/07/08 02:18:55;;;;;;;10.90;4.00;;;;;;;;;;106929;1275;22514;-83
2023/07/08 02:21:22;;;;;;;8.80;4.00;;;;;;;;;;106949;1275;22537;-83
2023/07/08 02:23:49;;;;;;;11.20;4.20;;;;;;;;;;107121;1269;22532;-82
2023/07/08 02:26:23;;;;;;;11.90;4.40;;;;;;;;;;106955;1258;22514;-79
2023/07/08 02:28:52;;;;;;;10.50;4.50;;;;;;;;;;107169;1275;22534;-77
2023/07/08 02:31:20;;;;;;;11.90;4.30;;;;;;;;;;107045;1263;24339;-83
2023/07/08 02:33:48;;;;;;;9.10;4.40;;;;;;;;;;106918;1275;22484;-83
2023/07/08 02:36:15;;;;;;;8.20;4.30;;;;;;;;;;106881;1275;22517;-79
2023/07/08 02:38:42;;;;;;;10.90;4.80;;;;;;;;;;107062;1275;22776;-77
2023/07/08 02:41:11;;;;;;;10.60;4.40;;;;;;;;;;107076;1275;22521;-80
2023/07/08 02:43:41;;;;;;;10.30;4.30;;;;;;;;;;110346;1275;22372;-78
2023/07/08 02:46:10;;;;;;;11.40;4.10;;;;;;;;;;110333;1252;22141;-78
2023/07/08 02:48:36;;;;;;;9.10;4.20;;;;;;;;;;110479;1275;22106;-78
2023/07/08 02:51:14;;;;;;;;;;;;;;;;;;;;;
2023/07/08 02:53:44;;;;;;;9.40;4.40;;;;;;;;;;110501;1275;22170;-81
2023/07/08 02:56:10;;;;;;;9.80;4.30;;;;;;;;;;110473;1252;22128;-79
2023/07/08 02:58:37;;;;;;;8.60;4.40;;;;;;;;;;110322;1275;22093;-78
2023/07/08 03:01:06;;;;;;;9.90;4.30;;;;;;;;;;110579;1275;22312;-79
2023/07/08 03:03:34;;;;;;;9.60;4.10;;;;;;;;;;110321;1275;22147;-79
2023/07/08 03:06:03;;;;;;;9.40;4.20;;;;;;;;;;110465;1275;22713;-79
2023/07/08 03:08:30;;;;;;;8.80;4.80;;;;;;;;;;110730;1259;22987;-79
2023/07/08 03:11:01;;;;;;;9.40;4.10;;;;;;;;;;110456;1275;22100;-79
2023/07/08 03:13:28;;;;;;;9.80;4.40;;;;;;;;;;110492;1275;22405;-79
2023/07/08 03:15:55;;;;;;;9.30;4.10;;;;;;;;;;110483;1275;21976;-79
2023/07/08 03:18:26;;;;;;;7.80;3.70;;;;;;;;;;110608;1257;22575;-79
2023/07/08 03:20:55;;;;;;;9.70;4.20;;;;;;;;;;110605;1275;22114;-79
2023/07/08 03:23:23;;;;;;;7.00;3.50;;;;;;;;;;110321;1275;22111;-79
2023/07/08 03:25:53;;;;;;;10.00;4.10;;;;;;;;;;110481;1275;22133;-79
2023/07/08 03:28:20;;;;;;;9.80;4.40;;;;;;;;;;110535;1258;22645;-79
2023/07/08 03:30:51;;;;;;;9.60;4.30;;;;;;;;;;110613;1275;22762;-79
2023/07/08 03:33:18;;;;;;;12.90;4.40;;;;;;;;;;110339;1275;22282;-79
2023/07/08 03:35:45;;;;;;;12.40;4.50;;;;;;;;;;110624;1275;22419;-79
2023/07/08 03:38:17;;;;;;;9.70;4.40;;;;;;;;;;110763;1254;22116;-79
2023/07/08 03:40:44;;;;;;;11.10;4.60;;;;;;;;;;110615;1272;22430;-79
2023/07/08 03:43:11;;;;;;;9.40;4.40;;;;;;;;;;110489;1275;22123;-78
2023/07/08 03:45:41;;;;;;;9.70;4.60;;;;;;;;;;110560;1275;21932;-79
2023/07/08 03:48:11;;;;;;;9.40;4.30;;;;;;;;;;110594;1256;22098;-79
2023/07/08 03:50:41;;;;;;;9.70;4.20;;;;;;;;;;110604;1276;22279;-79
2023/07/08 03:53:08;;;;;;;10.00;4.00;;;;;;;;;;110494;1276;22084;-78
2023/07/08 03:55:36;;;;;;;11.10;4.30;;;;;;;;;;110458;1276;22112;-78
2023/07/08 03:58:03;;;;;;;7.50;3.80;;;;;;;;;;110545;1257;22119;-79
2023/07/08 04:00:30;;;;;;;8.70;4.10;;;;;;;;;;110483;1276;22137;-79
2023/07/08 04:02:57;;;;;;;7.60;3.50;;;;;;;;;;110463;1276;23203;-79
2023/07/08 04:05:24;;;;;;;10.00;4.20;;;;;;;;;;110488;1276;22782;-79
2023/07/08 04:07:51;;;;;;;9.60;4.20;;;;;;;;;;110644;1256;22231;-79
2023/07/08 04:10:18;;;;;;;10.10;4.60;;;;;;;;;;110626;1276;22104;-79
2023/07/08 04:12:45;;;;;;;9.30;4.80;;;;;;;;;;110556;1276;22605;-79
2023/07/08 04:15:12;;;;;;;14.70;7.20;;;;;;;;;;110619;1275;22083;-79
2023/07/08 04:17:46;;;;;;;12.40;7.40;;;;;;;;;;110662;1253;23231;-79
2023/07/08 04:20:15;;;;;;;12.10;6.20;;;;;;;;;;110653;1276;22095;-79
2023/07/08 04:22:42;;;;;;;15.50;5.90;;;;;;;;;;110645;1276;22114;-79
2023/07/08 04:25:10;;;;;;;12.30;4.90;;;;;;;;;;110491;1276;22114;-79
2023/07/08 04:27:38;;;;;;;11.90;5.10;;;;;;;;;;110326;1276;22775;-79
2023/07/08 04:30:05;;;;;;;8.90;4.60;;;;;;;;;;110620;1259;22120;-79
2023/07/08 04:32:32;;;;;;;8.80;4.50;;;;;;;;;;110475;1276;22725;-79
2023/07/08 04:34:59;;;;;;;9.00;4.40;;;;;;;;;;110485;1276;22122;-78
2023/07/08 04:37:26;;;;;;;9.80;4.30;;;;;;;;;;110650;1276;22076;-76
2023/07/08 04:39:53;;;;;;;10.80;4.20;;;;;;;;;;110851;1256;22121;-76
2023/07/08 04:42:19;;;;;;;13.30;4.60;;;;;;;;;;110472;1276;22097;-76
2023/07/08 04:44:46;;;;;;;10.30;4.10;;;;;;;;;;110624;1276;22287;-76
2023/07/08 04:47:13;;;;;;;10.40;4.20;;;;;;;;;;110678;1276;22083;-76
2023/07/08 04:49:43;;;;;;;9.80;4.50;;;;;;;;;;110850;1256;22113;-76
2023/07/08 04:52:10;;;;;;;11.70;5.00;;;;;;;;;;110470;1276;22106;-76
2023/07/08 04:54:37;;;;;;;11.20;4.40;;;;;;;;;;110471;1276;22098;-76
2023/07/08 04:57:04;;;;;;;10.10;4.20;;;;;;;;;;110456;1276;22280;-76
2023/07/08 04:59:34;;;;;;;8.30;3.90;;;;;;;;;;110594;1259;22113;-76
2023/07/08 05:02:01;;;;;;;12.50;4.70;;;;;;;;;;110654;1276;22142;-76
2023/07/08 05:04:27;;;;;;;12.00;4.10;;;;;;;;;;110467;1276;22137;-76
2023/07/08 05:06:54;;;;;;;11.60;4.30;;;;;;;;;;110621;1276;22128;-76
2023/07/08 05:09:23;;;;;;;11.80;4.50;;;;;;;;;;110672;1253;22207;-76
2023/07/08 05:11:50;;;;;;;11.20;3.80;;;;;;;;;;110620;1276;22115;-76
2023/07/08 05:14:16;;;;;;;8.80;3.60;;;;;;;;;;110599;1276;22108;-76
2023/07/08 05:16:43;;;;;;;10.20;3.70;;;;;;;;;;110626;1276;22111;-76
2023/07/08 05:19:10;;;;;;;9.00;3.70;;;;;;;;;;110620;1254;22100;-77
2023/07/08 05:21:38;;;;;;;9.20;3.50;;;;;;;;;;110468;1276;22124;-76
2023/07/08 05:24:05;;;;;;;10.30;3.60;;;;;;;;;;110567;1276;22808;-76
2023/07/08 05:26:33;;;;;;;10.20;3.80;;;;;;;;;;110626;1275;22108;-76
2023/07/08 05:28:59;;;;;;;7.80;3.20;;;;;;;;;;110546;1258;22404;-76
2023/07/08 05:31:26;;;;;;;8.50;3.80;;;;;;;;;;110338;1276;22138;-76
2023/07/08 05:33:53;;;;;;;9.00;3.60;;;;;;;;;;110607;1276;22111;-76
2023/07/08 05:36:20;;;;;;;8.20;3.40;;;;;;;;;;110643;1276;22105;-76
2023/07/08 05:38:46;;;;;;;9.00;3.80;;;;;;;;;;110622;1276;22055;-76
2023/07/08 05:41:13;;;;;;;7.80;3.20;;;;;;;;;;110768;1258;22126;-76
2023/07/08 05:43:40;;;;;;;7.70;2.90;;;;;;;;;;110347;1277;22699;-77
2023/07/08 05:46:07;;;;;;;11.10;3.10;;;;;;;;;;110429;1277;21985;-76
2023/07/08 05:48:34;;;;;;;7.80;3.60;;;;;;;;;;110450;1278;21931;-76
2023/07/08 05:51:00;;;;;;;10.00;3.10;;;;;;;;;;110646;1257;22091;-76
2023/07/08 05:53:27;;;;;;;7.50;3.00;;;;;;;;;;110564;1276;22241;-76
2023/07/08 05:55:54;;;;;;;7.70;3.60;;;;;;;;;;110562;1277;22141;-76
2023/07/08 05:58:20;;;;;;;7.50;3.10;;;;;;;;;;110533;1277;22130;-76
2023/07/08 06:00:47;;;;;;;9.10;3.40;;;;;;;;;;110549;1259;22125;-77
2023/07/08 06:03:14;;;;;;;7.70;3.50;;;;;;;;;;110321;1277;22368;-76
2023/07/08 06:05:41;;;;;;;7.20;3.10;;;;;;;;;;110450;1277;22130;-76
2023/07/08 06:08:08;;;;;;;8.00;2.90;;;;;;;;;;110287;1277;22809;-76
2023/07/08 06:10:41;;;;;;;7.60;3.20;;;;;;;;;;110576;1259;22127;-76
2023/07/08 06:13:07;;;;;;;6.20;3.10;;;;;;;;;;110456;1277;21982;-76
2023/07/08 06:15:34;;;;;;;7.10;3.50;;;;;;;;;;110315;1277;22092;-76
2023/07/08 06:18:02;;;;;;;8.70;2.80;;;;;;;;;;110462;1277;22106;-76
2023/07/08 06:20:29;;;;;;;8.90;3.30;;;;;;;;;;110436;1259;22125;-76
2023/07/08 06:22:56;;;;;;;7.10;3.10;;;;;;;;;;110298;1277;22119;-76
2023/07/08 06:25:22;;;;;;;11.00;3.20;;;;;;;;;;110502;1277;22052;-76
2023/07/08 06:27:49;;;;;;;7.40;3.00;;;;;;;;;;110292;1277;22112;-76
2023/07/08 06:30:16;;;;;;;9.80;3.40;;;;;;;;;;110532;1254;22913;-76
2023/07/08 06:32:42;;;;;;;6.60;3.10;;;;;;;;;;110316;1277;22090;-76
2023/07/08 06:35:09;;;;;;;7.00;3.00;;;;;;;;;;110324;1277;22117;-76
2023/07/08 06:37:36;;;;;;;7.80;3.30;;;;;;;;;;110525;1277;22422;-76
2023/07/08 06:40:03;;;;;;;6.40;3.00;;;;;;;;;;110442;1277;22104;-76
2023/07/08 06:42:29;;;;;;;8.70;3.30;;;;;;;;;;110483;1259;22133;-76
2023/07/08 06:45:11;;;;;;;6.80;3.10;;;;;;;;;;110321;1278;22570;-76
2023/07/08 06:47:38;;;;;;;9.30;3.90;;;;;;;;;;110280;1277;22071;-76
2023/07/08 06:50:06;;;;;;;9.90;3.30;;;;;;;;;;110493;1277;22092;-77
2023/07/08 06:52:36;;;;;;;37.70;19.70;;;;;;;;;;110819;1260;22973;-76
2023/07/08 06:55:07;;;;;;;73.10;44.90;;;;;;;;;;110359;1277;22129;-77
2023/07/08 06:57:34;;;;;;;12.80;6.20;;;;;;;;;;110346;1277;22125;-76
2023/07/08 07:00:01;;;;;;;7.00;3.10;;;;;;;;;;110299;1277;21985;-76
2023/07/08 07:02:28;;;;;;;9.40;3.50;;;;;;;;;;110479;1259;22868;-76
2023/07/08 07:04:56;;;;;;;8.30;3.50;;;;;;;;;;110420;1277;22082;-77
2023/07/08 07:07:23;;;;;;;5.70;2.90;;;;;;;;;;110464;1277;22560;-76
2023/07/08 07:09:49;;;;;;;8.30;3.50;;;;;;;;;;110367;1278;22916;-76
2023/07/08 07:12:16;;;;;;;7.00;2.90;;;;;;;;;;110436;1260;22104;-76
2023/07/08 07:14:43;;;;;;;7.00;3.00;;;;;;;;;;110464;1278;22114;-76
2023/07/08 07:17:12;;;;;;;6.30;2.90;;;;;;;;;;110437;1277;22127;-76
2023/07/08 07:19:40;;;;;;;7.10;2.60;;;;;;;;;;110377;1277;22125;-76
2023/07/08 07:22:07;;;;;;;7.90;2.70;;;;;;;;;;110514;1260;22758;-76
2023/07/08 07:24:34;;;;;;;8.10;3.00;;;;;;;;;;110457;1277;22130;-77
2023/07/08 07:27:01;;;;;;;6.10;3.00;;;;;;;;;;110427;1278;22654;-76
2023/07/08 07:29:28;;;;;;;7.20;2.70;;;;;;;;;;110464;1278;22870;-76
2023/07/08 07:31:55;;;;;;;6.20;2.40;;;;;;;;;;110466;1260;22423;-77
2023/07/08 07:34:22;;;;;;;9.40;3.30;;;;;;;;;;110347;1277;22120;-77
2023/07/08 07:36:49;;;;;;;6.70;2.70;;;;;;;;;;110421;1277;22077;-76
2023/07/08 07:39:16;;;;;;;8.20;3.10;;;;;;;;;;110355;1278;22109;-76
2023/07/08 07:41:43;;;;;;;7.10;3.10;;;;;;;;;;108061;1254;3115907;-76
2023/07/08 07:44:10;;;;;;;6.80;2.90;;;;;;;;;;110356;1277;22102;-76
2023/07/08 07:46:37;;;;;;;6.80;2.70;;;;;;;;;;110438;1278;22103;-76
2023/07/08 07:49:04;;;;;;;6.70;2.80;;;;;;;;;;110457;1277;22989;-76
2023/07/08 07:51:31;;;;;;;8.40;3.00;;;;;;;;;;110392;1278;22340;-76
2023/07/08 07:53:58;;;;;;;7.50;2.90;;;;;;;;;;110643;1260;21749;-77
2023/07/08 07:56:28;;;;;;;7.80;2.70;;;;;;;;;;110424;1278;22085;-77
2023/07/08 07:58:56;;;;;;;6.20;2.60;;;;;;;;;;110300;1278;22122;-76
2023/07/08 08:01:24;;;;;;;6.40;2.40;;;;;;;;;;110421;1278;22791;-76
2023/07/08 08:03:52;;;;;;;7.30;2.80;;;;;;;;;;110602;1260;22117;-76
2023/07/08 08:06:20;;;;;;;5.80;2.80;;;;;;;;;;110433;1278;22077;-76
2023/07/08 08:08:48;;;;;;;6.40;2.60;;;;;;;;;;110306;1278;22100;-76
2023/07/08 08:11:17;;;;;;;6.40;2.30;;;;;;;;;;110147;1278;22686;-76
2023/07/08 08:13:45;;;;;;;5.80;2.40;;;;;;;;;;110492;1260;22119;-77
2023/07/08 08:16:12;;;;;;;6.70;2.80;;;;;;;;;;110283;1278;22101;-76
2023/07/08 08:18:40;;;;;;;6.40;2.90;;;;;;;;;;110424;1278;22092;-76
2023/07/08 08:21:08;;;;;;;6.40;2.50;;;;;;;;;;110415;1278;22090;-76
2023/07/08 08:23:36;;;;;;;5.40;2.40;;;;;;;;;;110406;1263;22091;-76
2023/07/08 08:26:04;;;;;;;6.80;2.40;;;;;;;;;;110289;1278;22295;-76
2023/07/08 08:28:32;;;;;;;7.60;3.10;;;;;;;;;;110330;1278;22109;-76
2023/07/08 08:30:59;;;;;;;7.60;3.00;;;;;;;;;;110437;1278;22112;-77
2023/07/08 08:33:27;;;;;;;9.20;2.80;;;;;;;;;;110480;1258;22723;-76
2023/07/08 08:35:55;;;;;;;9.40;2.90;;;;;;;;;;110438;1278;22147;-76
2023/07/08 08:38:23;;;;;;;5.80;2.80;;;;;;;;;;110439;1278;22103;-76
2023/07/08 08:40:51;;;;;;;5.60;2.80;;;;;;;;;;110448;1278;22113;-77
2023/07/08 08:43:22;;;;;;;7.70;2.70;;;;;;;;;;110436;1257;22115;-77
2023/07/08 08:46:04;;;;;;;7.00;2.80;;;;;;;;;;110449;1278;22070;-76
2023/07/08 08:48:35;;;;;;;6.40;2.80;;;;;;;;;;110155;1278;22568;-76
2023/07/08 08:51:08;;;;;;;7.00;2.80;;;;;;;;;;110282;1278;22162;-77
2023/07/08 08:53:36;;;;;;;5.90;2.90;;;;;;;;;;110400;1260;22159;-76
2023/07/08 08:56:19;;;;;;;6.80;2.80;;;;;;;;;;110369;1278;22114;-76
2023/07/08 08:58:54;;;;;;;5.90;2.60;;;;;;;;;;110368;1278;22119;-77
2023/07/08 09:01:23;;;;;;;6.30;2.60;;;;;;;;;;110377;1278;21995;-76
2023/07/08 09:04:04;;;;;;;6.00;2.50;;;;;;;;;;110443;1260;22127;-76
2023/07/08 09:06:35;;;;;;;7.20;2.40;;;;;;;;;;110265;1278;21956;-77
2023/07/08 09:09:16;;;;;;;6.20;2.70;;;;;;;;;;110259;1278;22099;-76
2023/07/08 09:12:04;;;;;;;7.30;2.70;;;;;;;;;;110264;1278;22079;-77
2023/07/08 09:14:34;;;;;;;6.30;2.80;;;;;;;;;;110508;1256;22104;-77
2023/07/08 09:17:35;;;;;;;5.10;2.60;;;;;;;;;;110394;1278;22086;-76
2023/07/08 09:20:23;;;;;;;5.10;2.60;;;;;;;;;;110273;1278;22078;-76
2023/07/08 09:22:59;;;;;;;7.30;2.70;;;;;;;;;;110285;1278;22171;-77
2023/07/08 09:25:48;;;;;;;7.00;2.70;;;;;;;;;;110509;1261;22125;-76
2023/07/08 09:28:18;;;;;;;6.50;2.50;;;;;;;;;;110294;1278;22114;-76
2023/07/08 09:30:53;;;;;;;6.30;3.00;;;;;;;;;;110166;1278;22389;-76
2023/07/08 09:33:24;;;;;;;6.70;3.10;;;;;;;;;;110281;1278;22930;-77
2023/07/08 09:35:53;;;;;;;8.90;3.60;;;;;;;;;;110520;1260;22439;-76
2023/07/08 09:38:23;;;;;;;11.60;3.40;;;;;;;;;;110265;1278;22612;-78
2023/07/08 09:41:05;;;;;;;7.50;3.20;;;;;;;;;;110366;1263;22300;-79
2023/07/08 09:43:40;;;;;;;7.00;2.80;;;;;;;;;;110272;1278;22111;-78
2023/07/08 09:46:13;;;;;;;5.90;2.70;;;;;;;;;;110449;1262;22131;-78
2023/07/08 09:48:45;;;;;;;8.20;3.70;;;;;;;;;;110172;1278;22123;-78
2023/07/08 09:58:21;;;;;;;6.50;2.90;;;;;;;;;;104028;1301;545879;-78
2023/07/08 10:00:51;;;;;;;7.60;4.30;;;;;;;;;;106063;1280;22489;-79
2023/07/08 10:03:31;;;;;;;7.20;2.90;;;;;;;;;;106102;1283;25552;-78
2023/07/08 10:06:03;;;;;;;7.10;3.00;;;;;;;;;;106229;1285;24322;-85
2023/07/08 10:08:45;;;;;;;6.60;3.10;;;;;;;;;;106406;1267;23153;-82
2023/07/08 10:11:30;;;;;;;6.40;2.90;;;;;;;;;;103943;1276;3378552;-78
2023/07/08 10:13:59;;;;;;;6.60;2.80;;;;;;;;;;106086;1283;24253;-78
2023/07/08 10:16:28;;;;;;;7.10;2.60;;;;;;;;;;106422;1276;24354;-78
2023/07/08 10:18:55;;;;;;;8.10;3.00;;;;;;;;;;106804;1269;25343;-77
2023/07/08 10:21:22;;;;;;;6.30;2.90;;;;;;;;;;107004;1273;22784;-80
2023/07/08 10:23:54;;;;;;;9.70;3.20;;;;;;;;;;107169;1270;25268;-81
2023/07/08 10:26:29;;;;;;;6.60;2.90;;;;;;;;;;107282;1269;25190;-79
2023/07/08 10:29:09;;;;;;;7.90;2.90;;;;;;;;;;107320;1254;22531;-78
2023/07/08 10:31:46;;;;;;;7.90;3.20;;;;;;;;;;107172;1267;25337;-78
2023/07/08 10:34:35;;;;;;;5.60;2.50;;;;;;;;;;107008;1267;22771;-80
2023/07/08 10:37:10;;;;;;;6.40;2.70;;;;;;;;;;107259;1267;22530;-80
2023/07/08 10:39:43;;;;;;;7.90;2.90;;;;;;;;;;107162;1257;22528;-79
2023/07/08 10:42:21;;;;;;;6.10;3.10;;;;;;;;;;107181;1267;25386;-80
2023/07/08 10:45:07;;;;;;;8.30;2.50;;;;;;;;;;107360;1267;22527;-78
2023/07/08 10:47:51;;;;;;;7.10;2.80;;;;;;;;;;107291;1266;22542;-83
2023/07/08 10:50:36;;;;;;;8.30;3.00;;;;;;;;;;110498;1257;22407;-77
2023/07/08 10:53:12;;;;;;;7.60;3.00;;;;;;;;;;110715;1273;21745;-77
2023/07/08 10:55:45;;;;;;;6.30;3.40;;;;;;;;;;110593;1273;22094;-77
2023/07/08 10:58:21;;;;;;;6.90;3.30;;;;;;;;;;110699;1273;22487;-79
2023/07/08 11:01:07;;;;;;;7.50;2.70;;;;;;;;;;110658;1264;22917;-79
2023/07/08 11:03:46;;;;;;;8.60;3.00;;;;;;;;;;110675;1273;22146;-78
2023/07/08 11:06:25;;;;;;;6.50;2.90;;;;;;;;;;110751;1260;22110;-78
2023/07/08 11:09:03;;;;;;;8.20;3.40;;;;;;;;;;110705;1249;22315;-79
2023/07/08 11:11:42;;;;;;;7.50;3.10;;;;;;;;;;110581;1273;22199;-78
2023/07/08 11:14:23;;;;;;;6.70;3.20;;;;;;;;;;110582;1273;22869;-77
2023/07/08 11:17:03;;;;;;;6.70;3.20;;;;;;;;;;110525;1273;21962;-77
2023/07/08 11:19:35;;;;;;;8.90;3.60;;;;;;;;;;110680;1253;22158;-78
2023/07/08 11:22:09;;;;;;;6.00;2.80;;;;;;;;;;110488;1275;22177;-78
2023/07/08 11:24:54;;;;;;;7.30;3.00;;;;;;;;;;110670;1274;22260;-78
2023/07/08 11:27:26;;;;;;;5.30;2.60;;;;;;;;;;110660;1274;22132;-78
2023/07/08 11:29:55;;;;;;;7.30;3.00;;;;;;;;;;110826;1254;22131;-78
2023/07/08 11:32:23;;;;;;;6.90;2.70;;;;;;;;;;110627;1273;22126;-79
2023/07/08 11:34:51;;;;;;;8.70;3.00;;;;;;;;;;110596;1273;22115;-79
2023/07/08 11:37:20;;;;;;;8.00;4.20;;;;;;;;;;110467;1273;22130;-79
2023/07/08 11:39:57;;;;;;;10.60;6.20;;;;;;;;;;110638;1254;22048;-79
2023/07/08 11:42:43;;;;;;;6.40;3.30;;;;;;;;;;110626;1274;22131;-78
2023/07/08 11:45:43;;;;;;;15.30;9.00;;;;;;;;;;110584;1274;22135;-79
2023/07/08 11:48:26;;;;;;;6.70;3.40;;;;;;;;;;110654;1274;22153;-80
2023/07/08 11:50:53;;;;;;;8.00;3.40;;;;;;;;;;110938;1253;22155;-79
2023/07/08 11:53:29;;;;;;;6.90;3.00;;;;;;;;;;110651;1273;23002;-79
2023/07/08 11:55:57;;;;;;;6.30;2.90;;;;;;;;;;110660;1273;22451;-79
2023/07/08 11:58:25;;;;;;;7.80;3.70;;;;;;;;;;110650;1273;22779;-80
2023/07/08 12:00:57;;;;;;;15.70;9.60;;;;;;;;;;110795;1254;22159;-80
2023/07/08 12:03:31;;;;;;;8.40;3.20;;;;;;;;;;110548;1259;22121;-81
2023/07/08 12:05:59;;;;;;;6.40;2.90;;;;;;;;;;110664;1274;22116;-78
2023/07/08 12:08:32;;;;;;;7.70;3.10;;;;;;;;;;110637;1274;22106;-77
2023/07/08 12:10:59;;;;;;;6.50;3.20;;;;;;;;;;110974;1256;22870;-78
2023/07/08 12:13:27;;;;;;;6.90;2.80;;;;;;;;;;110638;1274;22162;-78
2023/07/08 12:15:55;;;;;;;6.40;2.70;;;;;;;;;;110668;1274;22439;-79
2023/07/08 12:18:25;;;;;;;5.90;2.60;;;;;;;;;;110641;1274;22150;-79
2023/07/08 12:20:53;;;;;;;6.10;3.30;;;;;;;;;;110914;1253;22429;-78
2023/07/08 12:23:22;;;;;;;6.10;3.10;;;;;;;;;;110650;1273;22394;-79
2023/07/08 12:25:50;;;;;;;9.10;3.80;;;;;;;;;;110631;1273;23016;-79
2023/07/08 12:28:17;;;;;;;17.00;12.60;;;;;;;;;;110480;1273;22098;-79
2023/07/08 12:30:45;;;;;;;7.70;3.50;;;;;;;;;;110739;1254;22394;-79
2023/07/08 12:33:14;;;;;;;6.40;3.50;;;;;;;;;;110485;1262;22134;-79
2023/07/08 12:35:42;;;;;;;7.30;3.00;;;;;;;;;;110449;1274;22227;-81
2023/07/08 12:38:21;;;;;;;8.00;3.00;;;;;;;;;;110633;1274;22074;-80
2023/07/08 12:40:47;;;;;;;6.60;3.10;;;;;;;;;;110571;1250;22417;-79
2023/07/08 12:43:16;;;;;;;7.70;3.90;;;;;;;;;;110671;1273;22280;-80
2023/07/08 12:45:48;;;;;;;7.60;3.10;;;;;;;;;;110650;1274;22120;-80
2023/07/08 12:48:15;;;;;;;8.70;3.00;;;;;;;;;;110528;1273;22139;-80
2023/07/08 12:50:41;;;;;;;8.20;3.00;;;;;;;;;;110440;1253;22258;-80
2023/07/08 12:53:12;;;;;;;6.30;2.60;;;;;;;;;;110339;1275;22747;-80
2023/07/08 12:55:40;;;;;;;6.40;2.80;;;;;;;;;;110454;1276;22809;-81
2023/07/08 12:58:14;;;;;;;8.90;3.10;;;;;;;;;;110333;1276;21976;-79
2023/07/08 13:00:41;;;;;;;6.30;3.10;;;;;;;;;;110619;1275;22288;-81
2023/07/08 13:03:13;;;;;;;6.50;2.90;;;;;;;;;;110780;1255;22203;-80
2023/07/08 13:05:41;;;;;;;6.60;3.10;;;;;;;;;;110365;1275;22247;-80
2023/07/08 13:08:11;;;;;;;8.20;3.00;;;;;;;;;;110463;1275;22132;-80
2023/07/08 13:10:38;;;;;;;9.70;3.80;;;;;;;;;;110483;1275;22094;-79
2023/07/08 13:13:08;;;;;;;9.40;5.30;;;;;;;;;;110688;1255;22185;-79
2023/07/08 13:15:36;;;;;;;9.10;4.20;;;;;;;;;;110487;1276;22141;-80
2023/07/08 13:18:03;;;;;;;11.00;5.90;;;;;;;;;;110318;1276;22139;-80
2023/07/08 13:20:30;;;;;;;13.50;9.60;;;;;;;;;;110339;1276;22138;-80
2023/07/08 13:23:00;;;;;;;9.20;4.80;;;;;;;;;;110654;1254;22786;-79
2023/07/08 13:25:29;;;;;;;8.90;3.70;;;;;;;;;;110445;1273;22125;-78
2023/07/08 13:28:00;;;;;;;6.60;3.10;;;;;;;;;;110361;1271;22624;-80
2023/07/08 13:30:29;;;;;;;6.10;3.40;;;;;;;;;;110347;1275;22086;-79
2023/07/08 13:33:00;;;;;;;6.80;3.30;;;;;;;;;;110488;1254;22119;-80
2023/07/08 13:35:37;;;;;;;6.10;3.20;;;;;;;;;;110603;1276;22206;-79
2023/07/08 13:38:14;;;;;;;8.40;3.00;;;;;;;;;;110330;1276;22182;-79
2023/07/08 13:40:43;;;;;;;6.70;3.50;;;;;;;;;;110618;1276;22577;-80
2023/07/08 13:43:10;;;;;;;8.50;4.10;;;;;;;;;;110500;1254;22115;-80
2023/07/08 13:45:36;;;;;;;6.30;3.60;;;;;;;;;;110551;1275;22271;-80
2023/07/08 13:48:06;;;;;;;6.60;2.90;;;;;;;;;;110455;1275;22135;-80
2023/07/08 13:50:43;;;;;;;7.30;2.70;;;;;;;;;;110508;1275;22085;-80
2023/07/08 13:53:18;;;;;;;6.50;3.10;;;;;;;;;;110609;1256;22112;-79
2023/07/08 13:55:45;;;;;;;7.00;3.40;;;;;;;;;;110458;1276;22801;-80
2023/07/08 13:58:14;;;;;;;6.20;2.60;;;;;;;;;;110444;1276;22105;-81
2023/07/08 14:00:41;;;;;;;6.30;3.00;;;;;;;;;;110427;1276;22109;-80
2023/07/08 14:03:11;;;;;;;8.30;4.50;;;;;;;;;;110593;1255;22147;-80
2023/07/08 14:05:38;;;;;;;6.50;3.60;;;;;;;;;;110434;1275;21981;-80
2023/07/08 14:08:10;;;;;;;6.10;3.10;;;;;;;;;;110451;1274;22143;-80
2023/07/08 14:10:40;;;;;;;6.50;3.00;;;;;;;;;;110460;1275;22125;-80
2023/07/08 14:13:07;;;;;;;8.20;3.80;;;;;;;;;;110509;1256;22143;-80
2023/07/08 14:15:34;;;;;;;7.50;2.90;;;;;;;;;;110437;1276;21801;-79
2023/07/08 14:18:01;;;;;;;6.90;3.00;;;;;;;;;;110280;1261;22186;-79
2023/07/08 14:20:29;;;;;;;5.40;2.60;;;;;;;;;;110433;1276;22138;-79
2023/07/08 14:22:56;;;;;;;5.30;2.70;;;;;;;;;;110638;1253;22810;-79
2023/07/08 14:25:23;;;;;;;8.40;3.00;;;;;;;;;;110477;1276;22115;-79
2023/07/08 14:27:50;;;;;;;6.40;3.00;;;;;;;;;;110367;1275;22120;-79
2023/07/08 14:30:17;;;;;;;8.50;3.20;;;;;;;;;;110472;1276;22752;-79
2023/07/08 14:32:45;;;;;;;6.20;2.90;;;;;;;;;;110386;1254;22158;-79
2023/07/08 14:35:21;;;;;;;6.60;2.90;;;;;;;;;;110481;1275;22155;-80
2023/07/08 14:37:51;;;;;;;7.20;2.90;;;;;;;;;;110495;1276;23203;-81
2023/07/08 14:40:24;;;;;;;6.80;2.70;;;;;;;;;;110489;1276;22099;-80
2023/07/08 14:42:56;;;;;;;6.40;2.40;;;;;;;;;;110619;1253;22404;-79
2023/07/08 14:45:23;;;;;;;7.20;2.90;;;;;;;;;;110246;1276;22289;-80
2023/07/08 14:47:49;;;;;;;5.40;2.60;;;;;;;;;;110354;1275;22292;-81
2023/07/08 14:50:16;;;;;;;7.40;3.20;;;;;;;;;;110520;1275;22130;-79
2023/07/08 14:52:43;;;;;;;8.20;3.20;;;;;;;;;;110338;1275;22068;-80